createdAt,value
2018-05-13T00:00:30.913Z,1005.77
2018-05-13T00:01:30.888Z,1005.75
2018-05-13T00:02:30.758Z,1005.74
2018-05-13T00:05:12.956Z,1005.73
2018-05-13T00:06:12.895Z,1005.75
2018-05-13T00:07:12.734Z,1005.75
2018-05-13T00:08:12.722Z,1005.74
2018-05-13T00:09:12.577Z,1005.75
2018-05-13T00:10:12.569Z,1005.76
2018-05-13T00:11:12.422Z,1005.76
2018-05-13T00:12:12.422Z,1005.78
2018-05-13T00:13:12.266Z,1005.79
2018-05-13T00:14:12.239Z,1005.80
2018-05-13T00:15:12.137Z,1005.82
2018-05-13T00:16:12.145Z,1005.80
2018-05-13T00:17:11.948Z,1005.83
2018-05-13T00:18:11.955Z,1005.83
2018-05-13T00:19:11.811Z,1005.83
2018-05-13T00:20:11.802Z,1005.80
2018-05-13T00:21:11.657Z,1005.86
2018-05-13T00:22:11.689Z,1005.84
2018-05-13T00:23:11.507Z,1005.82
2018-05-13T00:24:11.490Z,1005.86
2018-05-13T00:25:11.342Z,1005.84
2018-05-13T00:26:11.327Z,1005.88
2018-05-13T00:27:11.220Z,1005.89
2018-05-13T00:28:11.114Z,1005.89
2018-05-13T00:33:34.545Z,1006.01
2018-05-13T00:34:34.478Z,1006.00
2018-05-13T00:35:34.373Z,1005.99
2018-05-13T00:36:34.393Z,1006.01
2018-05-13T00:37:34.248Z,1005.97
2018-05-13T00:38:34.208Z,1005.99
2018-05-13T00:39:34.085Z,1005.99
2018-05-13T00:40:34.115Z,1005.97
2018-05-13T00:41:33.953Z,1005.99
2018-05-13T00:42:33.922Z,1006.01
2018-05-13T00:43:33.770Z,1005.97
2018-05-13T00:44:33.734Z,1005.96
2018-05-13T00:45:33.606Z,1006.00
2018-05-13T00:46:33.689Z,1005.94
2018-05-13T00:47:33.450Z,1005.96
2018-05-13T00:50:15.397Z,1005.97
2018-05-13T00:51:15.445Z,1005.99
2018-05-13T00:52:15.261Z,1005.97
2018-05-13T00:54:57.427Z,1005.89
2018-05-13T00:55:57.354Z,1005.89
2018-05-13T00:56:57.271Z,1005.89
2018-05-13T00:57:57.278Z,1005.87
2018-05-13T00:58:57.105Z,1005.88
2018-05-13T00:59:57.078Z,1005.87
2018-05-13T01:00:56.929Z,1005.88
2018-05-13T01:01:56.937Z,1005.84
2018-05-13T01:02:56.794Z,1005.84
2018-05-13T01:03:56.801Z,1005.80
2018-05-13T01:04:56.638Z,1005.83
2018-05-13T01:05:56.605Z,1005.78
2018-05-13T01:06:56.473Z,1005.76
2018-05-13T01:07:56.448Z,1005.78
2018-05-13T01:08:56.321Z,1005.82
2018-05-13T01:09:56.328Z,1005.80
2018-05-13T01:10:56.153Z,1005.80
2018-05-13T01:13:38.429Z,1005.79
2018-05-13T01:16:20.433Z,1005.87
2018-05-13T01:17:20.424Z,1005.82
2018-05-13T01:18:20.275Z,1005.87
2018-05-13T01:20:45.027Z,1005.79
2018-05-13T01:21:44.856Z,1005.81
2018-05-13T01:22:45.807Z,1005.77
2018-05-13T01:23:44.681Z,1005.77
2018-05-13T01:24:44.656Z,1005.80
2018-05-13T01:25:44.518Z,1005.79
2018-05-13T01:26:44.566Z,1005.77
2018-05-13T01:27:44.390Z,1005.76
2018-05-13T01:30:26.397Z,1005.74
2018-05-13T01:31:26.361Z,1005.72
2018-05-13T01:32:26.254Z,1005.72
2018-05-13T01:33:26.315Z,1005.76
2018-05-13T01:34:26.132Z,1005.78
2018-05-13T01:35:26.094Z,1005.76
2018-05-13T01:36:25.952Z,1005.76
2018-05-13T01:37:25.885Z,1005.76
2018-05-13T01:38:25.792Z,1005.74
2018-05-13T01:39:25.863Z,1005.75
2018-05-13T01:40:25.633Z,1005.75
2018-05-13T01:41:25.620Z,1005.81
2018-05-13T01:42:25.496Z,1005.82
2018-05-13T01:43:25.471Z,1005.87
2018-05-13T01:44:25.357Z,1005.81
2018-05-13T01:47:07.413Z,1005.84
2018-05-13T01:48:07.472Z,1005.86
2018-05-13T01:49:07.279Z,1005.86
2018-05-13T01:50:07.254Z,1005.86
2018-05-13T01:51:07.111Z,1005.88
2018-05-13T01:52:07.178Z,1005.94
2018-05-13T01:53:06.946Z,1006.02
2018-05-13T01:54:07.004Z,1005.94
2018-05-13T01:55:06.794Z,1005.96
2018-05-13T01:56:06.777Z,1006.00
2018-05-13T01:57:06.652Z,1006.01
2018-05-13T01:58:06.684Z,1006.01
2018-05-13T01:59:06.495Z,1006.01
2018-05-13T02:00:06.514Z,1005.97
2018-05-13T02:01:06.324Z,1005.93
2018-05-13T02:03:48.421Z,1005.96
2018-05-13T02:04:49.466Z,1005.96
2018-05-13T02:05:48.265Z,1005.93
2018-05-13T02:06:48.302Z,1005.86
2018-05-13T02:07:48.103Z,1005.90
2018-05-13T02:08:48.118Z,1005.92
2018-05-13T02:09:47.980Z,1005.93
2018-05-13T02:10:47.918Z,1005.95
2018-05-13T02:11:47.808Z,1005.90
2018-05-13T02:12:47.838Z,1005.88
2018-05-13T02:13:47.622Z,1005.90
2018-05-13T02:14:47.694Z,1005.94
2018-05-13T02:15:47.487Z,1005.88
2018-05-13T02:16:47.443Z,1005.89
2018-05-13T02:17:47.332Z,1005.84
2018-05-13T02:18:47.361Z,1005.84
2018-05-13T02:19:47.229Z,1005.86
2018-05-13T02:22:29.419Z,1005.83
2018-05-13T02:23:29.372Z,1005.83
2018-05-13T02:24:29.271Z,1005.84
2018-05-13T02:25:29.326Z,1005.81
2018-05-13T02:26:29.121Z,1005.81
2018-05-13T02:27:29.088Z,1005.75
2018-05-13T02:28:28.972Z,1005.83
2018-05-13T02:29:29.014Z,1005.80
2018-05-13T02:30:28.835Z,1005.85
2018-05-13T02:31:28.804Z,1005.85
2018-05-13T02:32:28.655Z,1005.81
2018-05-13T02:35:10.953Z,1005.87
2018-05-13T02:36:10.922Z,1005.84
2018-05-13T02:37:10.764Z,1005.91
2018-05-13T02:40:53.973Z,1005.93
2018-05-13T02:41:53.969Z,1005.90
2018-05-13T02:42:53.766Z,1005.86
2018-05-13T02:43:53.831Z,1005.86
2018-05-13T02:44:53.625Z,1005.83
2018-05-13T02:45:53.613Z,1005.87
2018-05-13T02:46:53.463Z,1005.86
2018-05-13T02:47:53.498Z,1005.88
2018-05-13T02:48:53.331Z,1005.88
2018-05-13T02:49:53.310Z,1005.88
2018-05-13T02:50:53.175Z,1005.85
2018-05-13T02:51:53.111Z,1005.85
2018-05-13T02:52:53.037Z,1005.84
2018-05-13T02:53:53.014Z,1005.82
2018-05-13T02:54:52.866Z,1005.81
2018-05-13T02:55:52.856Z,1005.80
2018-05-13T02:56:52.712Z,1005.80
2018-05-13T02:57:52.638Z,1005.86
2018-05-13T02:58:52.533Z,1005.89
2018-05-13T02:59:52.565Z,1005.91
2018-05-13T03:00:52.361Z,1005.96
2018-05-13T03:01:53.420Z,1005.94
2018-05-13T03:02:52.222Z,1005.89
2018-05-13T03:03:52.171Z,1005.92
2018-05-13T03:04:52.071Z,1005.95
2018-05-13T03:05:52.065Z,1005.92
2018-05-13T03:06:51.906Z,1005.94
2018-05-13T03:07:52.953Z,1005.95
2018-05-13T03:08:51.750Z,1005.91
2018-05-13T03:11:33.927Z,1005.95
2018-05-13T03:12:33.934Z,1005.94
2018-05-13T03:13:33.795Z,1006.02
2018-05-13T03:16:15.913Z,1006.06
2018-05-13T03:17:15.919Z,1006.08
2018-05-13T03:18:15.777Z,1006.10
2018-05-13T03:19:15.794Z,1006.08
2018-05-13T03:20:15.616Z,1006.08
2018-05-13T03:21:15.604Z,1006.06
2018-05-13T03:22:15.473Z,1006.07
2018-05-13T03:23:15.423Z,1006.15
2018-05-13T03:24:15.332Z,1006.18
2018-05-13T03:25:15.334Z,1006.15
2018-05-13T03:26:15.138Z,1006.13
2018-05-13T03:27:15.139Z,1006.23
2018-05-13T03:28:15.010Z,1006.26
2018-05-13T03:29:14.951Z,1006.30
2018-05-13T03:30:14.830Z,1006.26
2018-05-13T03:32:56.956Z,1006.42
2018-05-13T03:35:38.944Z,1006.36
2018-05-13T03:36:38.965Z,1006.39
2018-05-13T03:37:38.805Z,1006.34
2018-05-13T03:38:38.808Z,1006.27
2018-05-13T03:39:38.621Z,1006.27
2018-05-13T03:40:38.570Z,1006.19
2018-05-13T03:41:38.458Z,1006.25
2018-05-13T03:42:38.493Z,1006.25
2018-05-13T03:43:38.335Z,1006.28
2018-05-13T03:44:38.318Z,1006.26
2018-05-13T03:45:38.145Z,1006.32
2018-05-13T03:46:38.098Z,1006.25
2018-05-13T03:47:37.994Z,1006.22
2018-05-13T03:48:38.053Z,1006.23
2018-05-13T03:49:37.830Z,1006.23
2018-05-13T03:50:37.822Z,1006.24
2018-05-13T03:51:37.684Z,1006.22
2018-05-13T03:52:37.640Z,1006.22
2018-05-13T03:53:37.547Z,1006.26
2018-05-13T03:54:37.538Z,1006.29
2018-05-13T03:55:37.391Z,1006.29
2018-05-13T03:56:37.356Z,1006.28
2018-05-13T03:57:37.210Z,1006.29
2018-05-13T03:58:37.203Z,1006.28
2018-05-13T03:59:37.064Z,1006.34
2018-05-13T04:00:37.058Z,1006.32
2018-05-13T04:01:36.933Z,1006.33
2018-05-13T04:04:18.967Z,1006.32
2018-05-13T04:05:18.925Z,1006.33
2018-05-13T04:06:18.783Z,1006.34
2018-05-13T04:07:18.871Z,1006.40
2018-05-13T04:08:18.631Z,1006.42
2018-05-13T04:09:18.654Z,1006.42
2018-05-13T04:10:18.486Z,1006.44
2018-05-13T04:11:18.541Z,1006.43
2018-05-13T04:12:18.335Z,1006.43
2018-05-13T04:13:18.332Z,1006.48
2018-05-13T04:14:18.191Z,1006.48
2018-05-13T04:15:18.110Z,1006.53
2018-05-13T04:16:18.013Z,1006.54
2018-05-13T04:17:18.041Z,1006.55
2018-05-13T04:18:17.842Z,1006.56
2018-05-13T04:19:17.866Z,1006.57
2018-05-13T04:20:17.685Z,1006.52
2018-05-13T04:21:17.664Z,1006.50
2018-05-13T04:22:17.536Z,1006.46
2018-05-13T04:23:17.551Z,1006.50
2018-05-13T04:24:17.404Z,1006.46
2018-05-13T04:25:18.434Z,1006.45
2018-05-13T04:26:17.262Z,1006.50
2018-05-13T04:27:17.169Z,1006.50
2018-05-13T04:28:17.073Z,1006.55
2018-05-13T04:29:17.089Z,1006.56
2018-05-13T04:30:16.928Z,1006.55
2018-05-13T04:32:58.967Z,1006.47
2018-05-13T04:33:59.012Z,1006.45
2018-05-13T04:34:58.831Z,1006.41
2018-05-13T04:35:58.827Z,1006.39
2018-05-13T04:36:58.649Z,1006.39
2018-05-13T04:37:58.631Z,1006.39
2018-05-13T04:38:58.507Z,1006.44
2018-05-13T04:39:58.472Z,1006.42
2018-05-13T04:40:58.346Z,1006.40
2018-05-13T04:43:40.474Z,1006.44
2018-05-13T04:44:40.443Z,1006.43
2018-05-13T04:45:40.340Z,1006.43
2018-05-13T04:46:40.347Z,1006.43
2018-05-13T04:47:40.149Z,1006.46
2018-05-13T04:48:40.175Z,1006.41
2018-05-13T04:49:40.013Z,1006.45
2018-05-13T04:50:41.047Z,1006.49
2018-05-13T04:51:39.847Z,1006.48
2018-05-13T04:52:39.885Z,1006.48
2018-05-13T04:53:39.688Z,1006.52
2018-05-13T04:56:22.016Z,1006.54
2018-05-13T04:57:22.006Z,1006.58
2018-05-13T04:58:21.822Z,1006.56
2018-05-13T04:59:21.809Z,1006.57
2018-05-13T05:00:21.670Z,1006.50
2018-05-13T05:01:22.672Z,1006.52
2018-05-13T05:02:21.498Z,1006.53
2018-05-13T05:03:21.534Z,1006.55
2018-05-13T05:04:21.359Z,1006.59
2018-05-13T05:05:23.394Z,1006.59
2018-05-13T05:06:21.229Z,1006.59
2018-05-13T05:07:21.169Z,1006.61
2018-05-13T05:08:21.038Z,1006.64
2018-05-13T05:09:21.041Z,1006.63
2018-05-13T05:10:20.888Z,1006.63
2018-05-13T05:11:20.903Z,1006.61
2018-05-13T05:12:20.721Z,1006.63
2018-05-13T05:13:20.785Z,1006.62
2018-05-13T05:14:20.566Z,1006.62
2018-05-13T05:15:20.569Z,1006.61
2018-05-13T05:16:20.468Z,1006.59
2018-05-13T05:17:20.393Z,1006.60
2018-05-13T05:18:20.255Z,1006.61
2018-05-13T05:19:20.300Z,1006.57
2018-05-13T05:20:20.097Z,1006.59
2018-05-13T05:21:20.145Z,1006.62
2018-05-13T05:22:19.945Z,1006.58
2018-05-13T05:23:19.906Z,1006.60
2018-05-13T05:24:19.802Z,1006.59
2018-05-13T05:25:19.826Z,1006.61
2018-05-13T05:26:19.667Z,1006.58
2018-05-13T05:27:19.626Z,1006.61
2018-05-13T05:28:19.494Z,1006.63
2018-05-13T05:31:01.473Z,1006.71
2018-05-13T05:32:03.525Z,1006.74
2018-05-13T05:33:01.324Z,1006.80
2018-05-13T05:35:43.502Z,1006.83
2018-05-13T05:36:43.475Z,1006.85
2018-05-13T05:37:43.352Z,1006.86
2018-05-13T05:59:23.256Z,1007.29
2018-05-13T06:00:23.136Z,1007.27
2018-05-13T06:01:23.135Z,1007.28
2018-05-13T06:02:22.972Z,1007.25
2018-05-13T06:04:22.838Z,1007.29
2018-05-13T06:05:22.854Z,1007.31
2018-05-13T06:06:22.698Z,1007.34
2018-05-13T06:07:22.670Z,1007.38
2018-05-13T06:08:22.529Z,1007.38
2018-05-13T06:09:22.517Z,1007.46
2018-05-13T06:10:22.373Z,1007.49
2018-05-13T06:11:22.387Z,1007.59
2018-05-13T06:12:22.283Z,1007.68
2018-05-13T06:13:22.187Z,1007.86
2018-05-13T06:14:22.092Z,1007.85
2018-05-13T06:15:22.103Z,1007.66
2018-05-13T06:16:21.914Z,1007.61
2018-05-13T06:17:21.914Z,1007.71
2018-05-13T06:18:21.761Z,1007.69
2018-05-13T06:19:21.764Z,1007.76
2018-05-13T06:20:21.616Z,1007.79
2018-05-13T06:21:21.626Z,1007.78
2018-05-13T06:22:21.471Z,1007.73
2018-05-13T06:23:21.449Z,1007.77
2018-05-13T06:24:21.333Z,1007.79
2018-05-13T06:27:00.057Z,1007.92
2018-05-13T06:27:00.597Z,1008.01
2018-05-13T06:28:00.580Z,1008.15
2018-05-13T06:29:00.482Z,1008.26
2018-05-13T06:30:01.446Z,1008.14
2018-05-13T06:31:00.296Z,1007.79
2018-05-13T06:32:00.305Z,1007.80
2018-05-13T06:33:00.136Z,1007.80
2018-05-13T06:34:00.225Z,1008.08
2018-05-13T06:35:00.030Z,1007.98
2018-05-13T06:36:00.025Z,1007.88
2018-05-13T06:36:59.841Z,1007.80
2018-05-13T06:38:00.551Z,1007.77
2018-05-13T06:38:59.704Z,1007.76
2018-05-13T06:40:00.718Z,1007.85
2018-05-13T06:40:59.550Z,1008.03
2018-05-13T06:41:59.551Z,1008.08
2018-05-13T06:42:59.405Z,1007.82
2018-05-13T06:44:01.332Z,1007.85
2018-05-13T06:44:59.266Z,1007.81
2018-05-13T06:46:02.169Z,1007.98
2018-05-13T06:46:59.084Z,1008.10
2018-05-13T06:48:01.330Z,1008.16
2018-05-13T06:48:58.954Z,1008.11
2018-05-13T06:50:01.488Z,1007.91
2018-05-13T06:50:58.936Z,1007.89
2018-05-13T06:53:45.021Z,1008.20
2018-05-13T06:54:44.975Z,1008.26
2018-05-13T06:55:44.867Z,1008.23
2018-05-13T06:57:02.084Z,1008.36
2018-05-13T06:57:44.695Z,1008.19
2018-05-13T06:58:44.703Z,1008.11
2018-05-13T06:59:44.547Z,1008.08
2018-05-13T07:00:45.574Z,1008.10
2018-05-13T07:01:44.395Z,1008.16
2018-05-13T07:02:44.507Z,1008.18
2018-05-13T07:03:44.244Z,1008.08
2018-05-13T07:04:44.216Z,1007.88
2018-05-13T07:05:44.115Z,1007.92
2018-05-13T07:06:44.180Z,1007.86
2018-05-13T07:07:43.954Z,1007.81
2018-05-13T07:08:43.951Z,1007.77
2018-05-13T07:09:43.833Z,1007.72
2018-05-13T07:12:26.020Z,1007.64
2018-05-13T07:13:25.957Z,1007.58
2018-05-13T07:14:25.848Z,1007.58
2018-05-13T07:15:25.857Z,1007.58
2018-05-13T07:16:25.729Z,1007.56
2018-05-13T07:17:25.707Z,1007.64
2018-05-13T07:18:25.563Z,1007.62
2018-05-13T07:21:07.502Z,1007.67
2018-05-13T07:22:07.522Z,1007.69
2018-05-13T07:23:07.356Z,1007.71
2018-05-13T07:24:07.386Z,1007.81
2018-05-13T07:25:07.198Z,1007.81
2018-05-13T07:26:07.222Z,1007.88
2018-05-13T07:27:07.076Z,1007.87
2018-05-13T07:29:49.092Z,1007.93
2018-05-13T07:30:49.007Z,1007.95
2018-05-13T07:31:48.856Z,1007.94
2018-05-13T07:32:48.852Z,1007.95
2018-05-13T07:33:48.701Z,1007.91
2018-05-13T07:34:48.747Z,1007.86
2018-05-13T07:35:48.571Z,1007.83
2018-05-13T07:36:48.522Z,1007.82
2018-05-13T07:37:48.442Z,1007.84
2018-05-13T07:38:48.442Z,1007.81
2018-05-13T07:39:48.253Z,1007.84
2018-05-13T07:40:48.253Z,1007.83
2018-05-13T07:41:48.109Z,1007.84
2018-05-13T07:42:48.092Z,1007.94
2018-05-13T07:43:47.953Z,1007.94
2018-05-13T07:44:47.980Z,1007.94
2018-05-13T07:45:47.823Z,1007.95
2018-05-13T07:46:47.781Z,1007.93
2018-05-13T07:47:47.706Z,1007.90
2018-05-13T07:48:47.691Z,1007.93
2018-05-13T07:49:47.531Z,1007.92
2018-05-13T07:52:29.527Z,1007.96
2018-05-13T07:53:29.550Z,1007.97
2018-05-13T07:54:29.360Z,1007.99
2018-05-13T07:55:29.401Z,1008.02
2018-05-13T07:56:29.213Z,1008.01
2018-05-13T07:57:29.223Z,1008.00
2018-05-13T07:58:29.082Z,1008.09
2018-05-13T07:59:29.024Z,1008.02
2018-05-13T08:00:28.913Z,1008.01
2018-05-13T08:01:28.936Z,1008.06
2018-05-13T08:02:28.753Z,1008.05
2018-05-13T08:03:28.786Z,1008.05
2018-05-13T08:04:28.614Z,1008.11
2018-05-13T08:07:10.531Z,1008.20
2018-05-13T08:09:52.538Z,1008.21
2018-05-13T08:10:52.551Z,1008.26
2018-05-13T08:11:52.380Z,1008.27
2018-05-13T08:14:34.552Z,1008.31
2018-05-13T08:17:16.519Z,1008.32
2018-05-13T08:18:16.548Z,1008.29
2018-05-13T08:19:16.392Z,1008.25
2018-05-13T08:20:18.498Z,1008.29
2018-05-13T08:21:16.216Z,1008.19
2018-05-13T08:22:16.170Z,1008.25
2018-05-13T08:23:16.070Z,1008.20
2018-05-13T08:24:16.109Z,1008.22
2018-05-13T08:25:15.927Z,1008.24
2018-05-13T08:26:15.908Z,1008.25
2018-05-13T08:27:15.768Z,1008.30
2018-05-13T08:29:58.061Z,1008.33
2018-05-13T08:30:58.011Z,1008.35
2018-05-13T08:31:57.872Z,1008.41
2018-05-13T08:32:57.913Z,1008.40
2018-05-13T08:33:57.716Z,1008.45
2018-05-13T08:34:57.768Z,1008.41
2018-05-13T08:35:57.564Z,1008.36
2018-05-13T08:36:57.525Z,1008.34
2018-05-13T08:37:57.409Z,1008.30
2018-05-13T08:38:57.450Z,1008.25
2018-05-13T08:39:57.282Z,1008.17
2018-05-13T08:40:57.258Z,1008.14
2018-05-13T08:44:21.030Z,1008.24
2018-05-13T08:45:21.069Z,1008.32
2018-05-13T08:46:20.891Z,1008.31
2018-05-13T08:47:21.042Z,1008.39
2018-05-13T08:48:20.715Z,1008.41
2018-05-13T08:49:20.767Z,1008.44
2018-05-13T08:50:20.589Z,1008.49
2018-05-13T08:51:20.562Z,1008.51
2018-05-13T08:52:20.428Z,1008.56
2018-05-13T08:53:20.373Z,1008.55
2018-05-13T08:54:20.254Z,1008.47
2018-05-13T08:55:20.281Z,1008.43
2018-05-13T08:56:20.137Z,1008.42
2018-05-13T08:57:20.090Z,1008.37
2018-05-13T08:58:19.962Z,1008.31
2018-05-13T08:59:20.008Z,1008.24
2018-05-13T09:00:19.925Z,1008.15
2018-05-13T09:01:19.847Z,1008.06
2018-05-13T09:02:19.636Z,1007.93
2018-05-13T09:03:19.622Z,1007.81
2018-05-13T09:04:19.491Z,1007.74
2018-05-13T09:05:19.453Z,1007.66
2018-05-13T09:06:19.372Z,1007.63
2018-05-13T09:07:19.377Z,1007.62
2018-05-13T09:08:19.169Z,1007.65
2018-05-13T09:09:19.163Z,1007.64
2018-05-13T09:10:19.028Z,1007.68
2018-05-13T09:11:18.995Z,1007.73
2018-05-13T09:12:18.855Z,1007.75
2018-05-13T09:13:18.877Z,1007.78
2018-05-13T09:14:19.121Z,1007.82
2018-05-13T09:15:18.690Z,1007.88
2018-05-13T09:16:18.594Z,1007.91
2018-05-13T09:17:18.629Z,1007.93
2018-05-13T09:18:18.397Z,1007.97
2018-05-13T09:19:18.399Z,1008.00
2018-05-13T09:20:18.234Z,1008.08
2018-05-13T09:21:18.207Z,1008.11
2018-05-13T09:22:18.110Z,1008.17
2018-05-13T09:23:18.129Z,1008.22
2018-05-13T09:24:17.936Z,1008.33
2018-05-13T09:25:17.936Z,1008.36
2018-05-13T09:26:17.792Z,1008.40
2018-05-13T09:27:17.768Z,1008.47
2018-05-13T09:28:17.618Z,1008.46
2018-05-13T09:29:17.635Z,1008.47
2018-05-13T09:30:17.462Z,1008.45
2018-05-13T09:31:17.561Z,1008.48
2018-05-13T09:32:17.647Z,1008.47
2018-05-13T09:33:17.365Z,1008.50
2018-05-13T09:34:17.172Z,1008.50
2018-05-13T09:35:17.187Z,1008.49
2018-05-13T09:36:17.015Z,1008.43
2018-05-13T09:37:17.032Z,1008.40
2018-05-13T09:38:16.847Z,1008.42
2018-05-13T09:39:16.890Z,1008.41
2018-05-13T09:40:16.690Z,1008.46
2018-05-13T09:41:16.710Z,1008.42
2018-05-13T09:42:16.563Z,1008.43
2018-05-13T09:43:17.059Z,1008.43
2018-05-13T09:44:16.380Z,1008.35
2018-05-13T09:45:16.417Z,1008.43
2018-05-13T09:46:16.219Z,1008.44
2018-05-13T09:48:58.073Z,1008.56
2018-05-13T09:49:58.023Z,1008.66
2018-05-13T09:50:57.900Z,1008.67
2018-05-13T09:51:57.939Z,1008.65
2018-05-13T09:52:57.769Z,1008.64
2018-05-13T09:53:57.735Z,1008.64
2018-05-13T09:54:57.917Z,1008.63
2018-05-13T09:55:57.555Z,1008.57
2018-05-13T09:56:57.442Z,1008.56
2018-05-13T09:57:57.509Z,1008.57
2018-05-13T09:58:57.336Z,1008.61
2018-05-13T09:59:57.279Z,1008.67
2018-05-13T10:00:57.121Z,1008.59
2018-05-13T10:01:57.066Z,1008.55
2018-05-13T10:02:56.958Z,1008.53
2018-05-13T10:03:57.055Z,1008.52
2018-05-13T10:04:56.815Z,1008.55
2018-05-13T10:07:39.076Z,1008.70
2018-05-13T10:08:39.146Z,1008.75
2018-05-13T10:09:39.179Z,1008.79
2018-05-13T10:10:39.024Z,1008.72
2018-05-13T10:11:38.747Z,1008.70
2018-05-13T10:12:38.717Z,1008.62
2018-05-13T10:13:38.635Z,1008.60
2018-05-13T10:14:38.623Z,1008.61
2018-05-13T10:15:38.434Z,1008.59
2018-05-13T10:16:38.472Z,1008.54
2018-05-13T10:17:38.268Z,1008.49
2018-05-13T10:36:00.721Z,1008.60
2018-05-13T10:37:00.690Z,1008.61
2018-05-13T10:38:00.594Z,1008.63
2018-05-13T10:39:00.495Z,1008.63
2018-05-13T10:40:00.404Z,1008.64
2018-05-13T10:41:00.420Z,1008.64
2018-05-13T10:42:00.227Z,1008.60
2018-05-13T10:43:00.216Z,1008.60
2018-05-13T10:44:00.085Z,1008.57
2018-05-13T10:45:00.062Z,1008.58
2018-05-13T10:45:59.914Z,1008.59
2018-05-13T10:46:59.936Z,1008.55
2018-05-13T10:47:59.768Z,1008.57
2018-05-13T10:48:59.730Z,1008.60
2018-05-13T10:49:59.605Z,1008.65
2018-05-13T10:50:59.591Z,1008.69
2018-05-13T10:51:59.456Z,1008.73
2018-05-13T10:52:59.452Z,1008.80
2018-05-13T10:53:59.275Z,1008.85
2018-05-13T10:54:59.308Z,1008.83
2018-05-13T10:55:59.125Z,1008.87
2018-05-13T10:56:59.079Z,1008.82
2018-05-13T10:57:58.978Z,1008.82
2018-05-13T10:58:58.995Z,1008.80
2018-05-13T10:59:58.828Z,1008.78
2018-05-13T11:00:58.811Z,1008.72
2018-05-13T11:01:58.653Z,1008.68
2018-05-13T11:02:58.607Z,1008.76
2018-05-13T11:03:58.488Z,1008.72
2018-05-13T11:04:58.511Z,1008.70
2018-05-13T11:05:58.370Z,1008.70
2018-05-13T11:06:58.326Z,1008.64
2018-05-13T11:07:58.182Z,1008.67
2018-05-13T11:08:58.132Z,1008.61
2018-05-13T11:09:58.024Z,1008.62
2018-05-13T11:10:58.081Z,1008.59
2018-05-13T11:11:57.878Z,1008.59
2018-05-13T11:12:57.854Z,1008.57
2018-05-13T11:13:57.717Z,1008.58
2018-05-13T11:14:57.769Z,1008.52
2018-05-13T11:15:57.569Z,1008.56
2018-05-13T11:16:57.572Z,1008.56
2018-05-13T11:17:57.401Z,1008.56
2018-05-13T11:18:57.367Z,1008.56
2018-05-13T11:19:57.271Z,1008.59
2018-05-13T11:20:57.221Z,1008.61
2018-05-13T11:21:57.202Z,1008.58
2018-05-13T11:22:57.108Z,1008.61
2018-05-13T11:23:56.936Z,1008.58
2018-05-13T11:24:56.912Z,1008.54
2018-05-13T11:25:56.786Z,1008.53
2018-05-13T11:26:56.721Z,1008.47
2018-05-13T11:27:56.627Z,1008.45
2018-05-13T11:28:56.616Z,1008.42
2018-05-13T11:29:56.450Z,1008.46
2018-05-13T11:30:56.457Z,1008.42
2018-05-13T11:31:56.301Z,1008.48
2018-05-13T11:32:56.413Z,1008.46
2018-05-13T11:33:56.280Z,1008.45
2018-05-13T11:34:56.143Z,1008.37
2018-05-13T11:35:56.060Z,1008.38
2018-05-13T11:36:55.982Z,1008.39
2018-05-13T11:37:55.830Z,1008.39
2018-05-13T11:38:55.867Z,1008.46
2018-05-13T11:39:55.782Z,1008.49
2018-05-13T11:40:55.719Z,1008.56
2018-05-13T11:41:55.577Z,1008.62
2018-05-13T11:42:55.478Z,1008.68
2018-05-13T11:43:55.363Z,1008.71
2018-05-13T11:44:55.408Z,1008.74
2018-05-13T11:45:55.202Z,1008.82
2018-05-13T11:46:55.220Z,1008.80
2018-05-13T11:47:55.060Z,1008.87
2018-05-13T11:48:55.030Z,1008.85
2018-05-13T11:49:54.888Z,1008.85
2018-05-13T11:50:54.923Z,1008.88
2018-05-13T11:51:54.747Z,1008.92
2018-05-13T11:52:54.773Z,1008.92
2018-05-13T11:53:54.566Z,1008.98
2018-05-13T11:54:54.542Z,1008.94
2018-05-13T11:55:54.553Z,1008.97
2018-05-13T11:56:54.514Z,1008.88
2018-05-13T11:57:54.289Z,1008.89
2018-05-13T11:58:54.314Z,1008.85
2018-05-13T11:59:54.086Z,1008.90
2018-05-13T12:00:54.085Z,1008.86
2018-05-13T12:01:54.080Z,1008.84
2018-05-13T12:02:53.909Z,1008.78
2018-05-13T12:03:53.783Z,1008.82
2018-05-13T12:04:53.864Z,1008.82
2018-05-13T12:05:53.664Z,1008.77
2018-05-13T12:06:53.675Z,1008.78
2018-05-13T12:07:53.489Z,1008.79
2018-05-13T12:08:53.637Z,1008.72
2018-05-13T12:09:53.307Z,1008.66
2018-05-13T12:10:53.316Z,1008.64
2018-05-13T12:11:53.233Z,1008.62
2018-05-13T12:12:53.266Z,1008.56
2018-05-13T12:13:53.006Z,1008.60
2018-05-13T12:14:53.044Z,1008.64
2018-05-13T12:15:52.849Z,1008.60
2018-05-13T12:16:52.862Z,1008.59
2018-05-13T12:17:52.686Z,1008.57
2018-05-13T12:18:52.692Z,1008.59
2018-05-13T12:19:52.522Z,1008.52
2018-05-13T12:20:52.563Z,1008.48
2018-05-13T12:21:52.362Z,1008.45
2018-05-13T12:22:52.390Z,1008.47
2018-05-13T12:23:52.252Z,1008.52
2018-05-13T12:24:52.184Z,1008.54
2018-05-13T12:25:52.103Z,1008.50
2018-05-13T12:26:52.105Z,1008.51
2018-05-13T12:27:51.902Z,1008.52
2018-05-13T12:28:52.000Z,1008.57
2018-05-13T12:29:51.738Z,1008.53
2018-05-13T12:30:51.728Z,1008.57
2018-05-13T12:31:51.593Z,1008.63
2018-05-13T12:32:51.635Z,1008.67
2018-05-13T12:33:51.441Z,1008.73
2018-05-13T12:34:51.429Z,1008.74
2018-05-13T12:35:51.264Z,1008.75
2018-05-13T12:36:51.234Z,1008.80
2018-05-13T12:37:51.116Z,1008.88
2018-05-13T12:38:51.149Z,1008.84
2018-05-13T12:39:50.961Z,1008.86
2018-05-13T12:40:50.960Z,1008.83
2018-05-13T12:41:50.831Z,1008.79
2018-05-13T12:44:33.130Z,1008.75
2018-05-13T12:45:33.071Z,1008.77
2018-05-13T12:46:32.938Z,1008.74
2018-05-13T12:47:32.993Z,1008.75
2018-05-13T12:48:32.786Z,1008.81
2018-05-13T12:49:32.827Z,1008.78
2018-05-13T12:50:32.637Z,1008.82
2018-05-13T12:51:32.619Z,1008.81
2018-05-13T12:52:32.461Z,1008.82
2018-05-13T12:53:32.532Z,1008.77
2018-05-13T12:54:32.307Z,1008.73
2018-05-13T12:55:32.375Z,1008.67
2018-05-13T12:56:32.228Z,1008.61
2018-05-13T12:57:32.147Z,1008.55
2018-05-13T12:58:32.075Z,1008.50
2018-05-13T12:59:32.036Z,1008.54
2018-05-13T13:00:31.892Z,1008.54
2018-05-13T13:01:31.886Z,1008.52
2018-05-13T13:02:31.700Z,1008.53
2018-05-13T13:03:31.668Z,1008.50
2018-05-13T13:04:31.579Z,1008.51
2018-05-13T13:05:31.627Z,1008.51
2018-05-13T13:06:31.649Z,1008.53
2018-05-13T13:07:31.639Z,1008.48
2018-05-13T13:08:31.219Z,1008.49
2018-05-13T13:11:13.165Z,1008.45
2018-05-13T13:12:13.067Z,1008.47
2018-05-13T13:13:13.233Z,1008.48
2018-05-13T13:14:13.138Z,1008.44
2018-05-13T13:15:12.802Z,1008.38
2018-05-13T13:16:12.796Z,1008.41
2018-05-13T13:17:12.700Z,1008.40
2018-05-13T13:18:12.610Z,1008.36
2018-05-13T13:19:12.481Z,1008.40
2018-05-13T13:20:12.539Z,1008.34
2018-05-13T13:21:12.347Z,1008.30
2018-05-13T13:22:12.416Z,1008.31
2018-05-13T13:23:12.171Z,1008.33
2018-05-13T13:24:12.130Z,1008.33
2018-05-13T13:25:12.011Z,1008.33
2018-05-13T13:26:12.034Z,1008.36
2018-05-13T13:27:11.879Z,1008.34
2018-05-13T13:28:11.846Z,1008.34
2018-05-13T13:29:11.697Z,1008.30
2018-05-13T13:30:11.669Z,1008.32
2018-05-13T13:31:11.584Z,1008.33
2018-05-13T13:32:11.497Z,1008.26
2018-05-13T13:33:11.377Z,1008.29
2018-05-13T13:34:11.373Z,1008.26
2018-05-13T13:35:11.265Z,1008.29
2018-05-13T13:36:11.421Z,1008.25
2018-05-13T13:37:11.078Z,1008.25
2018-05-13T13:38:11.126Z,1008.21
2018-05-13T13:39:10.899Z,1008.19
2018-05-13T13:40:10.901Z,1008.14
2018-05-13T13:41:10.742Z,1008.08
2018-05-13T13:42:10.719Z,1008.03
2018-05-13T13:43:10.692Z,1008.03
2018-05-13T13:44:10.633Z,1008.04
2018-05-13T13:45:10.431Z,1008.02
2018-05-13T13:46:10.455Z,1008.07
2018-05-13T13:47:10.355Z,1008.09
2018-05-13T13:48:10.291Z,1008.08
2018-05-13T13:49:10.121Z,1008.07
2018-05-13T13:50:10.169Z,1008.07
2018-05-13T13:51:09.955Z,1008.09
2018-05-13T13:52:09.977Z,1008.02
2018-05-13T13:53:09.873Z,1008.05